sensor_id;sensor_type;location;lat;lon;timestamp;temperature;humidity
6098;DHT22;3077;50.922;6.584;2023-02-01T00:01:32;6.50;99.90
6098;DHT22;3077;50.922;6.584;2023-02-01T00:03:57;6.60;99.90
6098;DHT22;3077;50.922;6.584;2023-02-01T00:06:23;6.50;99.90
6098;DHT22;3077;50.922;6.584;2023-02-01T00:08:51;6.40;99.90
6098;DHT22;3077;50.922;6.584;2023-02-01T00:11:17;6.40;99.90
6098;DHT22;3077;50.922;6.584;2023-02-01T00:13:43;6.30;99.90
6098;DHT22;3077;50.922;6.584;2023-02-01T00:16:28;6.30;99.90
6098;DHT22;3077;50.922;6.584;2023-02-01T00:19:12;6.30;99.90
6098;DHT22;3077;50.922;6.584;2023-02-01T00:21:38;6.30;99.90
6098;DHT22;3077;50.922;6.584;2023-02-01T00:24:04;6.30;99.90
6098;DHT22;3077;50.922;6.584;2023-02-01T00:26:35;6.20;99.90
6098;DHT22;3077;50.922;6.584;2023-02-01T00:29:03;6.30;99.90
6098;DHT22;3077;50.922;6.584;2023-02-01T00:31:28;6.30;99.90
6098;DHT22;3077;50.922;6.584;2023-02-01T00:33:54;6.30;99.90
6098;DHT22;3077;50.922;6.584;2023-02-01T00:36:20;6.30;99.90
6098;DHT22;3077;50.922;6.584;2023-02-01T00:38:45;6.40;99.90
6098;DHT22;3077;50.922;6.584;2023-02-01T00:41:19;6.40;99.90
6098;DHT22;3077;50.922;6.584;2023-02-01T00:43:46;6.40;99.90
6098;DHT22;3077;50.922;6.584;2023-02-01T00:46:13;6.40;99.90
6098;DHT22;3077;50.922;6.584;2023-02-01T00:48:39;6.40;99.90
6098;DHT22;3077;50.922;6.584;2023-02-01T00:51:27;6.40;99.90
6098;DHT22;3077;50.922;6.584;2023-02-01T00:53:53;6.40;99.90
6098;DHT22;3077;50.922;6.584;2023-02-01T00:56:19;6.40;99.90
6098;DHT22;3077;50.922;6.584;2023-02-01T00:58:45;6.40;99.90
6098;DHT22;3077;50.922;6.584;2023-02-01T01:01:16;6.40;99.90
6098;DHT22;3077;50.922;6.584;2023-02-01T01:03:49;6.40;99.90
6098;DHT22;3077;50.922;6.584;2023-02-01T01:06:18;6.40;99.90
6098;DHT22;3077;50.922;6.584;2023-02-01T01:08:45;6.40;99.90
6098;DHT22;3077;50.922;6.584;2023-02-01T01:11:19;6.40;99.90
6098;DHT22;3077;50.922;6.584;2023-02-01T01:13:47;6.50;99.90
6098;DHT22;3077;50.922;6.584;2023-02-01T01:16:13;6.40;99.90
6098;DHT22;3077;50.922;6.584;2023-02-01T01:18:39;6.40;99.90
6098;DHT22;3077;50.922;6.584;2023-02-01T01:21:05;6.40;99.90
6098;DHT22;3077;50.922;6.584;2023-02-01T01:23:31;6.30;99.90
6098;DHT22;3077;50.922;6.584;2023-02-01T01:25:58;6.20;99.90
6098;DHT22;3077;50.922;6.584;2023-02-01T01:28:24;6.30;99.90
6098;DHT22;3077;50.922;6.584;2023-02-01T01:30:49;6.30;99.90
6098;DHT22;3077;50.922;6.584;2023-02-01T01:33:15;6.20;99.90
6098;DHT22;3077;50.922;6.584;2023-02-01T01:35:41;6.20;99.90
6098;DHT22;3077;50.922;6.584;2023-02-01T01:38:08;6.20;99.90
6098;DHT22;3077;50.922;6.584;2023-02-01T01:40:34;6.10;99.90
6098;DHT22;3077;50.922;6.584;2023-02-01T01:43:00;6.10;99.90
6098;DHT22;3077;50.922;6.584;2023-02-01T01:45:33;6.10;99.90
6098;DHT22;3077;50.922;6.584;2023-02-01T01:48:04;6.10;99.90
6098;DHT22;3077;50.922;6.584;2023-02-01T01:50:34;6.10;99.90
6098;DHT22;3077;50.922;6.584;2023-02-01T01:53:03;6.10;99.90
6098;DHT22;3077;50.922;6.584;2023-02-01T01:55:32;6.20;99.90
6098;DHT22;3077;50.922;6.584;2023-02-01T01:58:03;6.20;99.90
6098;DHT22;3077;50.922;6.584;2023-02-01T02:00:30;6.10;99.90
6098;DHT22;3077;50.922;6.584;2023-02-01T02:03:44;6.20;99.90
6098;DHT22;3077;50.922;6.584;2023-02-01T02:05:46;6.20;99.90
6098;DHT22;3077;50.922;6.584;2023-02-01T02:08:13;6.20;99.90
6098;DHT22;3077;50.922;6.584;2023-02-01T02:10:39;6.30;99.90
6098;DHT22;3077;50.922;6.584;2023-02-01T02:13:24;6.30;99.90
6098;DHT22;3077;50.922;6.584;2023-02-01T02:16:04;6.30;99.90
6098;DHT22;3077;50.922;6.584;2023-02-01T02:18:37;6.40;99.90
6098;DHT22;3077;50.922;6.584;2023-02-01T02:41:44;6.50;99.90
6098;DHT22;3077;50.922;6.584;2023-02-01T02:47:40;6.50;99.90
6098;DHT22;3077;50.922;6.584;2023-02-01T02:50:29;6.50;99.90
6098;DHT22;3077;50.922;6.584;2023-02-01T02:53:41;6.50;99.90
6098;DHT22;3077;50.922;6.584;2023-02-01T02:56:30;6.50;99.90
6098;DHT22;3077;50.922;6.584;2023-02-01T02:59:17;6.50;99.90
6098;DHT22;3077;50.922;6.584;2023-02-01T03:02:03;6.50;99.90
6098;DHT22;3077;50.922;6.584;2023-02-01T03:04:52;6.50;99.90
6098;DHT22;3077;50.922;6.584;2023-02-01T03:12:46;6.50;99.90
6098;DHT22;3077;50.922;6.584;2023-02-01T03:15:24;6.50;99.90
6098;DHT22;3077;50.922;6.584;2023-02-01T03:17:52;6.40;99.90
6098;DHT22;3077;50.922;6.584;2023-02-01T03:20:21;6.50;99.90
6098;DHT22;3077;50.922;6.584;2023-02-01T03:22:48;6.50;99.90
6098;DHT22;3077;50.922;6.584;2023-02-01T03:25:21;6.50;99.90
6098;DHT22;3077;50.922;6.584;2023-02-01T03:27:52;6.60;99.90
6098;DHT22;3077;50.922;6.584;2023-02-01T03:30:33;6.40;99.90
6098;DHT22;3077;50.922;6.584;2023-02-01T03:33:04;6.40;99.90
6098;DHT22;3077;50.922;6.584;2023-02-01T03:38:12;6.40;99.90
6098;DHT22;3077;50.922;6.584;2023-02-01T03:40:40;6.40;99.90
6098;DHT22;3077;50.922;6.584;2023-02-01T03:43:11;6.30;99.90
6098;DHT22;3077;50.922;6.584;2023-02-01T03:45:43;6.30;99.90
6098;DHT22;3077;50.922;6.584;2023-02-01T03:48:10;6.30;99.90
6098;DHT22;3077;50.922;6.584;2023-02-01T03:50:40;6.30;99.90
6098;DHT22;3077;50.922;6.584;2023-02-01T03:53:12;6.30;99.90
6098;DHT22;3077;50.922;6.584;2023-02-01T03:55:40;6.30;99.90
6098;DHT22;3077;50.922;6.584;2023-02-01T04:00:37;6.20;99.90
6098;DHT22;3077;50.922;6.584;2023-02-01T04:03:04;6.20;99.90
6098;DHT22;3077;50.922;6.584;2023-02-01T04:05:30;6.20;99.90
6098;DHT22;3077;50.922;6.584;2023-02-01T04:07:56;6.20;99.90
6098;DHT22;3077;50.922;6.584;2023-02-01T04:10:22;6.20;99.90
6098;DHT22;3077;50.922;6.584;2023-02-01T04:12:48;6.10;99.90
6098;DHT22;3077;50.922;6.584;2023-02-01T04:15:13;6.20;99.90
6098;DHT22;3077;50.922;6.584;2023-02-01T04:17:39;6.00;99.90
6098;DHT22;3077;50.922;6.584;2023-02-01T04:20:05;6.10;99.90
6098;DHT22;3077;50.922;6.584;2023-02-01T04:22:31;6.20;99.90
6098;DHT22;3077;50.922;6.584;2023-02-01T04:24:57;6.10;99.90
6098;DHT22;3077;50.922;6.584;2023-02-01T04:27:22;6.20;99.90
6098;DHT22;3077;50.922;6.584;2023-02-01T04:29:48;6.20;99.90
6098;DHT22;3077;50.922;6.584;2023-02-01T04:32:15;6.20;99.90
6098;DHT22;3077;50.922;6.584;2023-02-01T04:34:41;6.20;99.90
6098;DHT22;3077;50.922;6.584;2023-02-01T04:37:06;6.30;99.90
6098;DHT22;3077;50.922;6.584;2023-02-01T04:39:33;6.10;99.90
6098;DHT22;3077;50.922;6.584;2023-02-01T04:41:58;6.10;99.90
6098;DHT22;3077;50.922;6.584;2023-02-01T04:44:24;6.00;99.90
6098;DHT22;3077;50.922;6.584;2023-02-01T04:46:49;6.00;99.90
6098;DHT22;3077;50.922;6.584;2023-02-01T04:49:15;6.00;99.90
6098;DHT22;3077;50.922;6.584;2023-02-01T04:51:41;6.00;99.90
6098;DHT22;3077;50.922;6.584;2023-02-01T04:54:08;5.90;99.90
6098;DHT22;3077;50.922;6.584;2023-02-01T04:56:34;5.90;99.90
6098;DHT22;3077;50.922;6.584;2023-02-01T04:59:03;5.90;99.90
6098;DHT22;3077;50.922;6.584;2023-02-01T05:01:29;5.90;99.90
6098;DHT22;3077;50.922;6.584;2023-02-01T05:03:55;5.90;99.90
6098;DHT22;3077;50.922;6.584;2023-02-01T05:06:21;5.80;99.90
6098;DHT22;3077;50.922;6.584;2023-02-01T05:08:47;5.80;99.90
6098;DHT22;3077;50.922;6.584;2023-02-01T05:11:13;5.70;99.90
6098;DHT22;3077;50.922;6.584;2023-02-01T05:13:58;5.80;99.90
6098;DHT22;3077;50.922;6.584;2023-02-01T05:16:23;5.70;99.90
6098;DHT22;3077;50.922;6.584;2023-02-01T05:18:49;5.80;99.90
6098;DHT22;3077;50.922;6.584;2023-02-01T05:21:14;5.70;99.90
6098;DHT22;3077;50.922;6.584;2023-02-01T05:23:40;5.70;99.90
6098;DHT22;3077;50.922;6.584;2023-02-01T05:26:25;5.80;99.90
6098;DHT22;3077;50.922;6.584;2023-02-01T05:28:51;5.80;99.90
6098;DHT22;3077;50.922;6.584;2023-02-01T05:31:17;5.80;99.90
6098;DHT22;3077;50.922;6.584;2023-02-01T05:33:42;5.70;99.90
6098;DHT22;3077;50.922;6.584;2023-02-01T05:36:08;5.70;99.90
6098;DHT22;3077;50.922;6.584;2023-02-01T05:38:33;5.70;99.90
6098;DHT22;3077;50.922;6.584;2023-02-01T05:40:59;5.60;99.90
6098;DHT22;3077;50.922;6.584;2023-02-01T05:43:24;5.60;99.90
6098;DHT22;3077;50.922;6.584;2023-02-01T05:45:52;5.70;99.90
6098;DHT22;3077;50.922;6.584;2023-02-01T05:48:18;5.70;99.90
6098;DHT22;3077;50.922;6.584;2023-02-01T05:50:44;5.60;99.90
6098;DHT22;3077;50.922;6.584;2023-02-01T05:53:09;5.60;99.90
6098;DHT22;3077;50.922;6.584;2023-02-01T05:55:36;5.60;99.90
6098;DHT22;3077;50.922;6.584;2023-02-01T05:58:02;5.60;99.90
6098;DHT22;3077;50.922;6.584;2023-02-01T06:00:27;5.60;99.90
6098;DHT22;3077;50.922;6.584;2023-02-01T06:02:53;5.60;99.90
6098;DHT22;3077;50.922;6.584;2023-02-01T06:05:18;5.50;99.90
6098;DHT22;3077;50.922;6.584;2023-02-01T06:07:44;5.50;99.90
6098;DHT22;3077;50.922;6.584;2023-02-01T06:10:10;5.50;99.90
6098;DHT22;3077;50.922;6.584;2023-02-01T06:12:36;5.40;99.90
6098;DHT22;3077;50.922;6.584;2023-02-01T06:15:01;5.50;99.90
6098;DHT22;3077;50.922;6.584;2023-02-01T06:17:27;5.50;99.90
6098;DHT22;3077;50.922;6.584;2023-02-01T06:19:52;5.50;99.90
6098;DHT22;3077;50.922;6.584;2023-02-01T06:22:18;5.50;99.90
6098;DHT22;3077;50.922;6.584;2023-02-01T06:24:43;5.50;99.90
6098;DHT22;3077;50.922;6.584;2023-02-01T06:27:09;5.50;99.90
6098;DHT22;3077;50.922;6.584;2023-02-01T06:29:35;5.40;99.90
6098;DHT22;3077;50.922;6.584;2023-02-01T06:32:01;5.50;99.90
6098;DHT22;3077;50.922;6.584;2023-02-01T06:34:28;5.50;99.90
6098;DHT22;3077;50.922;6.584;2023-02-01T06:36:53;5.40;99.90
6098;DHT22;3077;50.922;6.584;2023-02-01T06:39:20;5.50;99.90
6098;DHT22;3077;50.922;6.584;2023-02-01T06:41:47;5.50;99.90
6098;DHT22;3077;50.922;6.584;2023-02-01T06:44:13;5.40;99.90
6098;DHT22;3077;50.922;6.584;2023-02-01T06:46:38;5.40;99.90
6098;DHT22;3077;50.922;6.584;2023-02-01T06:49:04;5.40;99.90
6098;DHT22;3077;50.922;6.584;2023-02-01T06:51:29;5.40;99.90
6098;DHT22;3077;50.922;6.584;2023-02-01T06:53:55;5.30;99.90
6098;DHT22;3077;50.922;6.584;2023-02-01T06:56:21;5.30;99.90
6098;DHT22;3077;50.922;6.584;2023-02-01T06:58:47;5.30;99.90
6098;DHT22;3077;50.922;6.584;2023-02-01T07:01:13;5.30;99.90
6098;DHT22;3077;50.922;6.584;2023-02-01T07:03:39;5.30;99.90
6098;DHT22;3077;50.922;6.584;2023-02-01T07:06:05;5.30;99.90
6098;DHT22;3077;50.922;6.584;2023-02-01T07:08:33;5.30;99.90
6098;DHT22;3077;50.922;6.584;2023-02-01T07:11:08;5.30;99.90
6098;DHT22;3077;50.922;6.584;2023-02-01T07:13:34;5.30;99.90
6098;DHT22;3077;50.922;6.584;2023-02-01T07:16:01;5.30;99.90
6098;DHT22;3077;50.922;6.584;2023-02-01T07:18:28;5.30;99.90
6098;DHT22;3077;50.922;6.584;2023-02-01T07:20:55;5.30;99.90
6098;DHT22;3077;50.922;6.584;2023-02-01T07:23:20;5.30;99.90
6098;DHT22;3077;50.922;6.584;2023-02-01T07:25:46;5.30;99.90
6098;DHT22;3077;50.922;6.584;2023-02-01T07:28:12;5.30;99.90
6098;DHT22;3077;50.922;6.584;2023-02-01T07:30:37;5.20;99.90
6098;DHT22;3077;50.922;6.584;2023-02-01T07:33:03;5.30;99.90
6098;DHT22;3077;50.922;6.584;2023-02-01T07:35:29;5.30;99.90
6098;DHT22;3077;50.922;6.584;2023-02-01T07:37:57;5.70;99.90
6098;DHT22;3077;50.922;6.584;2023-02-01T07:40:22;5.20;99.90
6098;DHT22;3077;50.922;6.584;2023-02-01T07:42:56;5.30;99.90
6098;DHT22;3077;50.922;6.584;2023-02-01T07:45:23;5.30;99.90
6098;DHT22;3077;50.922;6.584;2023-02-01T07:47:51;5.30;99.90
6098;DHT22;3077;50.922;6.584;2023-02-01T07:50:16;5.40;99.90
6098;DHT22;3077;50.922;6.584;2023-02-01T07:52:42;5.40;99.90
6098;DHT22;3077;50.922;6.584;2023-02-01T07:55:08;5.40;99.90
6098;DHT22;3077;50.922;6.584;2023-02-01T07:57:34;5.40;99.90
6098;DHT22;3077;50.922;6.584;2023-02-01T07:59:59;5.40;99.90
6098;DHT22;3077;50.922;6.584;2023-02-01T08:02:43;5.40;99.90
6098;DHT22;3077;50.922;6.584;2023-02-01T08:05:09;5.40;99.90
6098;DHT22;3077;50.922;6.584;2023-02-01T08:07:34;5.40;99.90
6098;DHT22;3077;50.922;6.584;2023-02-01T08:10:00;5.40;99.90
6098;DHT22;3077;50.922;6.584;2023-02-01T08:12:26;5.50;99.90
6098;DHT22;3077;50.922;6.584;2023-02-01T08:14:52;5.50;99.90
6098;DHT22;3077;50.922;6.584;2023-02-01T08:17:19;5.50;99.90
6098;DHT22;3077;50.922;6.584;2023-02-01T08:19:44;5.50;99.90
6098;DHT22;3077;50.922;6.584;2023-02-01T08:22:10;5.60;99.90
6098;DHT22;3077;50.922;6.584;2023-02-01T08:24:35;5.60;99.90
6098;DHT22;3077;50.922;6.584;2023-02-01T08:27:04;5.60;99.90
6098;DHT22;3077;50.922;6.584;2023-02-01T08:29:30;5.60;99.90
6098;DHT22;3077;50.922;6.584;2023-02-01T08:31:55;5.60;99.90
6098;DHT22;3077;50.922;6.584;2023-02-01T08:34:21;5.60;99.90
6098;DHT22;3077;50.922;6.584;2023-02-01T08:36:47;5.50;99.90
6098;DHT22;3077;50.922;6.584;2023-02-01T08:39:13;5.60;99.90
6098;DHT22;3077;50.922;6.584;2023-02-01T08:41:38;5.60;99.90
6098;DHT22;3077;50.922;6.584;2023-02-01T08:44:04;5.60;99.90
6098;DHT22;3077;50.922;6.584;2023-02-01T08:46:30;5.70;99.90
6098;DHT22;3077;50.922;6.584;2023-02-01T08:48:55;5.70;99.90
6098;DHT22;3077;50.922;6.584;2023-02-01T08:51:22;5.80;99.90
6098;DHT22;3077;50.922;6.584;2023-02-01T08:53:49;5.80;99.90
6098;DHT22;3077;50.922;6.584;2023-02-01T08:56:16;5.90;99.90
6098;DHT22;3077;50.922;6.584;2023-02-01T08:58:42;6.00;99.90
6098;DHT22;3077;50.922;6.584;2023-02-01T09:01:10;6.00;99.90
6098;DHT22;3077;50.922;6.584;2023-02-01T09:03:37;6.10;99.90
6098;DHT22;3077;50.922;6.584;2023-02-01T09:06:11;6.10;99.90
6098;DHT22;3077;50.922;6.584;2023-02-01T09:08:38;6.10;99.90
6098;DHT22;3077;50.922;6.584;2023-02-01T09:11:07;6.10;99.90
6098;DHT22;3077;50.922;6.584;2023-02-01T09:13:33;6.10;99.90
6098;DHT22;3077;50.922;6.584;2023-02-01T09:15:59;6.10;99.90
6098;DHT22;3077;50.922;6.584;2023-02-01T09:18:25;6.10;99.90
6098;DHT22;3077;50.922;6.584;2023-02-01T09:20:51;6.20;99.90
6098;DHT22;3077;50.922;6.584;2023-02-01T09:23:16;6.20;99.90
6098;DHT22;3077;50.922;6.584;2023-02-01T09:25:42;6.20;99.90
6098;DHT22;3077;50.922;6.584;2023-02-01T09:28:08;6.20;99.90
6098;DHT22;3077;50.922;6.584;2023-02-01T09:30:35;6.20;99.90
6098;DHT22;3077;50.922;6.584;2023-02-01T09:33:01;6.20;99.90
6098;DHT22;3077;50.922;6.584;2023-02-01T09:35:27;6.20;99.90
6098;DHT22;3077;50.922;6.584;2023-02-01T09:37:53;6.20;99.90
6098;DHT22;3077;50.922;6.584;2023-02-01T09:40:19;6.30;99.90
6098;DHT22;3077;50.922;6.584;2023-02-01T09:48:36;6.50;99.90
6098;DHT22;3077;50.922;6.584;2023-02-01T09:51:10;6.60;99.90
6098;DHT22;3077;50.922;6.584;2023-02-01T09:53:40;6.60;99.90
6098;DHT22;3077;50.922;6.584;2023-02-01T09:56:35;6.60;99.90
6098;DHT22;3077;50.922;6.584;2023-02-01T10:01:41;6.70;99.90
6098;DHT22;3077;50.922;6.584;2023-02-01T10:04:12;6.70;99.90
6098;DHT22;3077;50.922;6.584;2023-02-01T10:07:12;6.90;99.90
6098;DHT22;3077;50.922;6.584;2023-02-01T10:12:36;6.90;99.90
6098;DHT22;3077;50.922;6.584;2023-02-01T10:28:27;7.10;99.90
6098;DHT22;3077;50.922;6.584;2023-02-01T10:30:56;7.10;99.90
6098;DHT22;3077;50.922;6.584;2023-02-01T10:33:26;7.20;99.90
6098;DHT22;3077;50.922;6.584;2023-02-01T10:35:58;7.30;99.90
6098;DHT22;3077;50.922;6.584;2023-02-01T10:38:28;7.40;99.90
6098;DHT22;3077;50.922;6.584;2023-02-01T10:41:00;7.40;99.90
6098;DHT22;3077;50.922;6.584;2023-02-01T10:43:27;7.50;99.90
6098;DHT22;3077;50.922;6.584;2023-02-01T10:45:53;7.50;99.90
6098;DHT22;3077;50.922;6.584;2023-02-01T10:48:18;7.40;99.90
6098;DHT22;3077;50.922;6.584;2023-02-01T10:50:56;7.40;99.90
6098;DHT22;3077;50.922;6.584;2023-02-01T10:53:34;7.50;99.90
6098;DHT22;3077;50.922;6.584;2023-02-01T10:56:13;7.60;99.90
6098;DHT22;3077;50.922;6.584;2023-02-01T10:58:46;7.60;99.90
6098;DHT22;3077;50.922;6.584;2023-02-01T11:01:21;7.70;99.90
6098;DHT22;3077;50.922;6.584;2023-02-01T11:03:56;7.50;99.90
6098;DHT22;3077;50.922;6.584;2023-02-01T11:08:59;7.70;99.90
6098;DHT22;3077;50.922;6.584;2023-02-01T11:11:26;7.60;99.90
6098;DHT22;3077;50.922;6.584;2023-02-01T11:14:00;7.60;99.90
6098;DHT22;3077;50.922;6.584;2023-02-01T11:16:35;7.70;99.90
6098;DHT22;3077;50.922;6.584;2023-02-01T11:19:01;7.80;99.90
6098;DHT22;3077;50.922;6.584;2023-02-01T11:21:27;7.90;99.90
6098;DHT22;3077;50.922;6.584;2023-02-01T11:23:53;7.90;99.90
6098;DHT22;3077;50.922;6.584;2023-02-01T11:26:26;8.00;1.00
6098;DHT22;3077;50.922;6.584;2023-02-01T11:28:57;8.10;1.00
6098;DHT22;3077;50.922;6.584;2023-02-01T11:31:25;8.10;1.00
6098;DHT22;3077;50.922;6.584;2023-02-01T11:34:03;8.10;99.90
6098;DHT22;3077;50.922;6.584;2023-02-01T11:36:32;8.10;99.90
6098;DHT22;3077;50.922;6.584;2023-02-01T11:39:17;8.00;99.90
6098;DHT22;3077;50.922;6.584;2023-02-01T11:41:57;8.00;99.90
6098;DHT22;3077;50.922;6.584;2023-02-01T11:44:41;7.90;99.90
6098;DHT22;3077;50.922;6.584;2023-02-01T11:49:52;7.90;99.90
6098;DHT22;3077;50.922;6.584;2023-02-01T11:52:29;8.00;99.90
6098;DHT22;3077;50.922;6.584;2023-02-01T11:58:11;8.40;1.00
6098;DHT22;3077;50.922;6.584;2023-02-01T12:06:30;8.60;1.00
6098;DHT22;3077;50.922;6.584;2023-02-01T12:36:16;8.20;99.90
6098;DHT22;3077;50.922;6.584;2023-02-01T12:41:42;8.60;99.90
6098;DHT22;3077;50.922;6.584;2023-02-01T12:47:22;9.40;99.90
6098;DHT22;3077;50.922;6.584;2023-02-01T12:50:24;9.00;1.00
6098;DHT22;3077;50.922;6.584;2023-02-01T12:52:54;8.70;99.90
6098;DHT22;3077;50.922;6.584;2023-02-01T12:58:20;8.30;99.90
6098;DHT22;3077;50.922;6.584;2023-02-01T13:01:52;8.10;1.00
6098;DHT22;3077;50.922;6.584;2023-02-01T13:07:02;8.00;1.00
6098;DHT22;3077;50.922;6.584;2023-02-01T13:09:40;8.00;1.00
6098;DHT22;3077;50.922;6.584;2023-02-01T13:12:21;8.00;1.00
6098;DHT22;3077;50.922;6.584;2023-02-01T13:15:01;7.90;1.00
6098;DHT22;3077;50.922;6.584;2023-02-01T13:17:30;8.00;1.00
6098;DHT22;3077;50.922;6.584;2023-02-01T13:22:37;7.90;24.10
6098;DHT22;3077;50.922;6.584;2023-02-01T13:27:36;7.90;99.90
6098;DHT22;3077;50.922;6.584;2023-02-01T13:33:06;7.90;12.60
6098;DHT22;3077;50.922;6.584;2023-02-01T13:36:34;7.90;55.80
6098;DHT22;3077;50.922;6.584;2023-02-01T13:42:16;7.90;99.90
6098;DHT22;3077;50.922;6.584;2023-02-01T13:44:58;7.90;21.30
6098;DHT22;3077;50.922;6.584;2023-02-01T13:47:31;7.90;17.50
6098;DHT22;3077;50.922;6.584;2023-02-01T13:52:58;8.00;1.00
6098;DHT22;3077;50.922;6.584;2023-02-01T13:55:30;8.00;1.00
6098;DHT22;3077;50.922;6.584;2023-02-01T13:58:33;8.00;1.00
6098;DHT22;3077;50.922;6.584;2023-02-01T14:09:13;8.30;1.00
6098;DHT22;3077;50.922;6.584;2023-02-01T14:11:49;8.30;99.90
6098;DHT22;3077;50.922;6.584;2023-02-01T14:16:41;8.40;99.90
6098;DHT22;3077;50.922;6.584;2023-02-01T14:19:27;8.40;99.90
6098;DHT22;3077;50.922;6.584;2023-02-01T14:21:54;8.50;99.90
6098;DHT22;3077;50.922;6.584;2023-02-01T14:24:34;8.50;99.90
6098;DHT22;3077;50.922;6.584;2023-02-01T14:29:41;8.50;99.90
6098;DHT22;3077;50.922;6.584;2023-02-01T14:32:22;8.40;1.00
6098;DHT22;3077;50.922;6.584;2023-02-01T14:34:53;8.50;99.90
6098;DHT22;3077;50.922;6.584;2023-02-01T14:39:58;8.40;99.90
6098;DHT22;3077;50.922;6.584;2023-02-01T14:50:33;8.70;99.90
6098;DHT22;3077;50.922;6.584;2023-02-01T14:55:53;8.40;1.00
6098;DHT22;3077;50.922;6.584;2023-02-01T14:58:42;8.40;1.00
6098;DHT22;3077;50.922;6.584;2023-02-01T15:01:29;8.30;19.50
6098;DHT22;3077;50.922;6.584;2023-02-01T15:09:25;8.40;1.00
6098;DHT22;3077;50.922;6.584;2023-02-01T15:12:02;8.50;1.00
6098;DHT22;3077;50.922;6.584;2023-02-01T15:14:35;8.50;99.90
6098;DHT22;3077;50.922;6.584;2023-02-01T15:17:01;8.50;99.90
6098;DHT22;3077;50.922;6.584;2023-02-01T15:19:29;8.50;1.00
6098;DHT22;3077;50.922;6.584;2023-02-01T15:21:57;8.40;99.90
6098;DHT22;3077;50.922;6.584;2023-02-01T15:24:31;8.50;99.90
6098;DHT22;3077;50.922;6.584;2023-02-01T15:27:03;8.40;99.90
6098;DHT22;3077;50.922;6.584;2023-02-01T15:29:30;8.40;1.00
6098;DHT22;3077;50.922;6.584;2023-02-01T15:31:58;8.40;1.00
6098;DHT22;3077;50.922;6.584;2023-02-01T15:34:44;8.40;1.00
6098;DHT22;3077;50.922;6.584;2023-02-01T15:37:15;8.40;99.90
6098;DHT22;3077;50.922;6.584;2023-02-01T15:43:11;8.20;1.00
6098;DHT22;3077;50.922;6.584;2023-02-01T15:45:29;8.00;99.90
6098;DHT22;3077;50.922;6.584;2023-02-01T15:47:58;7.90;1.00
6098;DHT22;3077;50.922;6.584;2023-02-01T15:50:24;7.80;1.00
6098;DHT22;3077;50.922;6.584;2023-02-01T15:52:51;7.60;1.00
6098;DHT22;3077;50.922;6.584;2023-02-01T15:55:35;7.30;1.00
6098;DHT22;3077;50.922;6.584;2023-02-01T15:58:09;7.30;99.90
6098;DHT22;3077;50.922;6.584;2023-02-01T16:00:53;7.20;99.90
6098;DHT22;3077;50.922;6.584;2023-02-01T16:03:27;7.40;99.90
6098;DHT22;3077;50.922;6.584;2023-02-01T16:06:01;7.10;99.90
6098;DHT22;3077;50.922;6.584;2023-02-01T16:08:29;7.00;99.90
6098;DHT22;3077;50.922;6.584;2023-02-01T16:11:26;6.90;99.90
6098;DHT22;3077;50.922;6.584;2023-02-01T16:13:53;6.90;99.90
6098;DHT22;3077;50.922;6.584;2023-02-01T16:16:18;6.80;99.90
6098;DHT22;3077;50.922;6.584;2023-02-01T16:18:44;6.80;99.90
6098;DHT22;3077;50.922;6.584;2023-02-01T16:21:10;6.80;99.90
6098;DHT22;3077;50.922;6.584;2023-02-01T16:23:36;6.80;99.90
6098;DHT22;3077;50.922;6.584;2023-02-01T16:26:03;6.70;99.90
6098;DHT22;3077;50.922;6.584;2023-02-01T16:28:29;6.70;99.90
6098;DHT22;3077;50.922;6.584;2023-02-01T16:30:55;6.70;99.90
6098;DHT22;3077;50.922;6.584;2023-02-01T16:33:21;6.70;99.90
6098;DHT22;3077;50.922;6.584;2023-02-01T16:35:48;6.70;99.90
6098;DHT22;3077;50.922;6.584;2023-02-01T16:38:19;6.80;99.90
6098;DHT22;3077;50.922;6.584;2023-02-01T16:40:47;6.70;99.90
6098;DHT22;3077;50.922;6.584;2023-02-01T16:43:17;6.70;99.90
6098;DHT22;3077;50.922;6.584;2023-02-01T16:45:44;6.70;99.90
6098;DHT22;3077;50.922;6.584;2023-02-01T16:50:57;6.60;99.90
6098;DHT22;3077;50.922;6.584;2023-02-01T16:53:24;6.60;99.90
6098;DHT22;3077;50.922;6.584;2023-02-01T16:55:50;6.60;99.90
6098;DHT22;3077;50.922;6.584;2023-02-01T17:00:52;6.50;99.90
6098;DHT22;3077;50.922;6.584;2023-02-01T17:03:19;6.60;99.90
6098;DHT22;3077;50.922;6.584;2023-02-01T17:05:50;6.60;99.90
6098;DHT22;3077;50.922;6.584;2023-02-01T17:08:31;6.50;99.90
6098;DHT22;3077;50.922;6.584;2023-02-01T17:10:57;6.50;99.90
6098;DHT22;3077;50.922;6.584;2023-02-01T17:13:23;6.50;99.90
6098;DHT22;3077;50.922;6.584;2023-02-01T17:18:39;6.60;99.90
6098;DHT22;3077;50.922;6.584;2023-02-01T17:21:05;6.50;99.90
6098;DHT22;3077;50.922;6.584;2023-02-01T17:23:31;6.60;99.90
6098;DHT22;3077;50.922;6.584;2023-02-01T17:25:57;6.60;99.90
6098;DHT22;3077;50.922;6.584;2023-02-01T17:28:23;6.60;99.90
6098;DHT22;3077;50.922;6.584;2023-02-01T17:30:49;6.60;99.90
6098;DHT22;3077;50.922;6.584;2023-02-01T17:33:30;6.60;99.90
6098;DHT22;3077;50.922;6.584;2023-02-01T17:35:56;6.70;99.90
6098;DHT22;3077;50.922;6.584;2023-02-01T17:38:23;6.70;99.90
6098;DHT22;3077;50.922;6.584;2023-02-01T17:40:49;6.80;99.90
6098;DHT22;3077;50.922;6.584;2023-02-01T17:43:19;6.80;99.90
6098;DHT22;3077;50.922;6.584;2023-02-01T17:45:49;6.90;99.90
6098;DHT22;3077;50.922;6.584;2023-02-01T17:48:18;6.90;99.90
6098;DHT22;3077;50.922;6.584;2023-02-01T17:50:44;6.90;99.90
6098;DHT22;3077;50.922;6.584;2023-02-01T17:53:13;6.90;99.90
6098;DHT22;3077;50.922;6.584;2023-02-01T17:55:44;6.90;99.90
6098;DHT22;3077;50.922;6.584;2023-02-01T17:58:11;6.90;99.90
6098;DHT22;3077;50.922;6.584;2023-02-01T18:00:38;6.90;99.90
6098;DHT22;3077;50.922;6.584;2023-02-01T18:03:04;6.90;99.90
6098;DHT22;3077;50.922;6.584;2023-02-01T18:05:40;6.90;99.90
6098;DHT22;3077;50.922;6.584;2023-02-01T18:08:07;6.90;99.90
6098;DHT22;3077;50.922;6.584;2023-02-01T18:10:34;7.00;99.90
6098;DHT22;3077;50.922;6.584;2023-02-01T18:13:01;7.20;99.90
6098;DHT22;3077;50.922;6.584;2023-02-01T18:15:28;7.10;99.90
6098;DHT22;3077;50.922;6.584;2023-02-01T18:17:54;6.80;99.90
6098;DHT22;3077;50.922;6.584;2023-02-01T18:20:23;7.00;99.90
6098;DHT22;3077;50.922;6.584;2023-02-01T18:22:50;7.00;99.90
6098;DHT22;3077;50.922;6.584;2023-02-01T18:25:22;7.00;99.90
6098;DHT22;3077;50.922;6.584;2023-02-01T18:27:49;7.10;99.90
6098;DHT22;3077;50.922;6.584;2023-02-01T18:30:17;7.00;99.90
6098;DHT22;3077;50.922;6.584;2023-02-01T18:32:46;7.00;99.90
6098;DHT22;3077;50.922;6.584;2023-02-01T18:35:18;7.10;99.90
6098;DHT22;3077;50.922;6.584;2023-02-01T18:37:44;7.00;99.90
6098;DHT22;3077;50.922;6.584;2023-02-01T18:40:14;7.20;99.90
6098;DHT22;3077;50.922;6.584;2023-02-01T18:42:40;7.20;99.90
6098;DHT22;3077;50.922;6.584;2023-02-01T18:45:24;7.30;99.90
6098;DHT22;3077;50.922;6.584;2023-02-01T18:47:51;7.30;99.90
6098;DHT22;3077;50.922;6.584;2023-02-01T18:50:17;7.20;99.90
6098;DHT22;3077;50.922;6.584;2023-02-01T18:52:43;7.30;99.90
6098;DHT22;3077;50.922;6.584;2023-02-01T18:55:09;7.30;99.90
6098;DHT22;3077;50.922;6.584;2023-02-01T18:57:35;7.40;99.90
6098;DHT22;3077;50.922;6.584;2023-02-01T19:00:04;7.30;99.90
6098;DHT22;3077;50.922;6.584;2023-02-01T19:02:30;7.40;99.90
6098;DHT22;3077;50.922;6.584;2023-02-01T19:04:55;7.30;99.90
6098;DHT22;3077;50.922;6.584;2023-02-01T19:07:22;7.30;99.90
6098;DHT22;3077;50.922;6.584;2023-02-01T19:09:47;7.30;99.90
6098;DHT22;3077;50.922;6.584;2023-02-01T19:12:13;7.30;99.90
6098;DHT22;3077;50.922;6.584;2023-02-01T19:14:39;7.30;99.90
6098;DHT22;3077;50.922;6.584;2023-02-01T19:17:05;7.30;99.90
6098;DHT22;3077;50.922;6.584;2023-02-01T19:19:30;7.30;99.90
6098;DHT22;3077;50.922;6.584;2023-02-01T19:21:56;7.30;99.90
6098;DHT22;3077;50.922;6.584;2023-02-01T19:24:21;7.30;99.90
6098;DHT22;3077;50.922;6.584;2023-02-01T19:26:52;7.40;99.90